»·PEaware :: N973SE KBFL-KSBP

N973SE :: KBFL-KSBP

FLIGHT INFORMATION

Flight Status: Arrived
Operator: Privately registered:
United States
More flights under this callsign
Pilot: Stig E. (4778)
Aircraft: CESSNA 310
(C310)
More flights by this aircraft type
Origin: KBFL Meadows
United States
Destination: KSBP San Luis Co Regl
United States
More flights between these airports :: More routes between these airports
Route: FASTO GMN LHS FIM V386 RZS FLW
File this flight plan on PilotEdge
Remarks:
Altitude:
(Current/Filed)
14,500ft
Speed:
(Current/Filed)
170kts
Departed: 12-Jan-19 11:30 PM
Arrived: 13-Jan-19 12:43 AM
Distance/Time
Traveled:
78nm/1:12
Distance/Time
To Go:
Arrived

Flight Plot

Page will automatically refresh every two minutes.

Flight plan parsing failed; only flown route is shown


Map Options




Map Legend


Flown Route
Filed Route
Departure Airport
Arrival Airport
Navaid (VOR, NDB)
Fix

Horizontal Profiles

Position Reports

Time Latitude Longitude Heading Altitude Ground
Speed
12-Jan-19 23:18 35.435714 -119.052044 180 509ft 0kts
12-Jan-19 23:19 35.435714 -119.052044 180 509ft 0kts
12-Jan-19 23:20 35.435622 -119.052044 180 508ft 0kts
12-Jan-19 23:21 35.434552 -119.054267 219 495ft 0kts
12-Jan-19 23:22 35.434552 -119.054267 219 495ft 0kts
12-Jan-19 23:23 35.434552 -119.054267 219 495ft 0kts
12-Jan-19 23:24 35.434486 -119.054346 229 495ft 4kts
12-Jan-19 23:25 35.436781 -119.057528 315 495ft 18kts
12-Jan-19 23:26 35.440564 -119.062055 313 501ft 17kts
12-Jan-19 23:27 35.442991 -119.065881 209 504ft 0kts
12-Jan-19 23:28 35.442990 -119.065881 209 504ft 0kts
12-Jan-19 23:29 35.436042 -119.058452 133 572ft 110kts
12-Jan-19 23:30 35.410246 -119.028342 136 1556ft 135kts
12-Jan-19 23:31 35.383479 -118.996295 135 2501ft 144kts
12-Jan-19 23:32 35.353573 -118.959967 135 3523ft 155kts
12-Jan-19 23:33 35.322615 -118.922401 134 4523ft 157kts
12-Jan-19 23:34 35.291439 -118.884603 134 5522ft 157kts
12-Jan-19 23:35 35.253481 -118.861686 173 6521ft 164kts
12-Jan-19 23:37 35.207590 -118.861156 174 7517ft 166kts
12-Jan-19 23:38 35.161247 -118.861134 174 8512ft 168kts
12-Jan-19 23:39 35.113491 -118.861107 173 9409ft 176kts
12-Jan-19 23:40 35.063582 -118.861106 173 10212ft 182kts
12-Jan-19 23:41 35.012354 -118.861088 174 11013ft 186kts
12-Jan-19 23:42 34.960096 -118.860967 175 11817ft 189kts
12-Jan-19 23:43 34.907149 -118.860779 176 12621ft 192kts
12-Jan-19 23:44 34.853168 -118.860748 177 13423ft 193kts
12-Jan-19 23:45 34.804227 -118.846201 123 14230ft 184kts
12-Jan-19 23:46 34.775388 -118.791159 115 14521ft 205kts
12-Jan-19 23:47 34.748079 -118.728938 113 14524ft 208kts
12-Jan-19 23:48 34.721216 -118.666038 113 14535ft 207kts
12-Jan-19 23:49 34.695438 -118.605608 114 14539ft 207kts
12-Jan-19 23:50 34.645192 -118.611056 217 14527ft 222kts
12-Jan-19 23:51 34.596129 -118.657007 217 14510ft 222kts
12-Jan-19 23:52 34.547089 -118.702853 217 14499ft 222kts
12-Jan-19 23:53 34.498042 -118.748631 217 14499ft 222kts
12-Jan-19 23:54 34.449033 -118.794305 217 14499ft 222kts
12-Jan-19 23:55 34.399957 -118.839977 217 14499ft 222kts
12-Jan-19 23:56 34.363204 -118.894775 273 14512ft 217kts
12-Jan-19 23:57 34.371506 -118.967113 283 14500ft 218kts
12-Jan-19 23:57 34.381670 -119.027455 281 14498ft 220kts
12-Jan-19 23:58 34.394404 -119.100907 280 14502ft 222kts
12-Jan-19 23:59 34.407194 -119.174527 280 14505ft 223kts
13-Jan-19 00:00 34.419920 -119.247966 280 14484ft 223kts
13-Jan-19 00:01 34.432388 -119.320245 281 13979ft 217kts
13-Jan-19 00:02 34.444758 -119.392100 281 13486ft 217kts
13-Jan-19 00:03 34.457069 -119.463896 281 12993ft 216kts
13-Jan-19 00:04 34.469228 -119.535126 281 12500ft 214kts
13-Jan-19 00:05 34.481198 -119.605491 282 12006ft 211kts
13-Jan-19 00:06 34.493035 -119.675330 281 11507ft 209kts
13-Jan-19 00:07 34.504758 -119.744606 283 11001ft 208kts
13-Jan-19 00:08 34.550479 -119.776216 350 10504ft 199kts
13-Jan-19 00:09 34.604768 -119.787084 353 10070ft 195kts
13-Jan-19 00:10 34.658365 -119.796001 354 9666ft 193kts
13-Jan-19 00:11 34.711592 -119.804631 354 9262ft 192kts
13-Jan-19 00:12 34.764493 -119.813186 354 8857ft 190kts
13-Jan-19 00:13 34.817056 -119.821692 353 8453ft 189kts
13-Jan-19 00:14 34.869149 -119.830133 353 8050ft 188kts
13-Jan-19 00:15 34.921263 -119.838595 354 7644ft 187kts
13-Jan-19 00:16 34.972526 -119.846924 354 7239ft 185kts
13-Jan-19 00:17 35.023546 -119.855222 355 6829ft 183kts
13-Jan-19 00:18 35.073636 -119.863417 353 6506ft 177kts
13-Jan-19 00:19 35.095850 -119.914625 284 6507ft 182kts
13-Jan-19 00:20 35.104692 -119.975634 285 6503ft 180kts
13-Jan-19 00:21 35.116464 -120.035495 286 6505ft 180kts
13-Jan-19 00:22 35.128564 -120.095224 286 6507ft 180kts
13-Jan-19 00:23 35.140702 -120.155459 286 6323ft 189kts
13-Jan-19 00:24 35.153445 -120.219134 286 5837ft 193kts
13-Jan-19 00:25 35.166228 -120.283188 286 5341ft 192kts
13-Jan-19 00:26 35.178903 -120.346895 285 4846ft 192kts
13-Jan-19 00:27 35.191370 -120.409718 285 4495ft 176kts
13-Jan-19 00:28 35.196118 -120.433819 285 4437ft 166kts
13-Jan-19 00:29 35.196118 -120.433819 285 4437ft 166kts
13-Jan-19 00:30 35.196118 -120.433819 285 4437ft 166kts
13-Jan-19 00:31 35.196118 -120.433819 285 4437ft 166kts
13-Jan-19 00:32 35.196118 -120.433819 285 4437ft 166kts
13-Jan-19 00:33 35.196118 -120.433819 285 4437ft 166kts
13-Jan-19 00:34 35.196118 -120.433819 285 4437ft 166kts
13-Jan-19 00:35 35.196677 -120.436640 285 4412ft 167kts
13-Jan-19 00:36 35.207775 -120.492787 285 3923ft 171kts
13-Jan-19 00:37 35.218035 -120.544822 285 3384ft 141kts
13-Jan-19 00:38 35.226291 -120.588280 284 2788ft 128kts
13-Jan-19 00:39 35.242172 -120.626646 303 1898ft 123kts
13-Jan-19 00:40 35.262156 -120.659439 291 941ft 116kts
13-Jan-19 00:41 35.245603 -120.655428 121 385ft 92kts
13-Jan-19 00:42 35.237722 -120.639069 93 215ft 10kts
13-Jan-19 00:43 35.238799 -120.639154 266 215ft 0kts
13-Jan-19 00:44 35.238799 -120.639154 266 215ft 0kts
13-Jan-19 00:45 35.238799 -120.639154 266 215ft 0kts
13-Jan-19 00:46 35.238799 -120.639154 266 215ft 0kts
13-Jan-19 00:47 35.238799 -120.639154 266 215ft 0kts
13-Jan-19 00:48 35.238799 -120.639154 266 215ft 0kts
13-Jan-19 00:49 35.238799 -120.639154 266 215ft 0kts
13-Jan-19 00:50 35.238799 -120.639154 266 215ft 0kts
13-Jan-19 00:51 35.238799 -120.639154 266 215ft 0kts
13-Jan-19 00:52 35.238799 -120.639154 266 215ft 0kts
13-Jan-19 00:53 35.238799 -120.639154 266 215ft 0kts
13-Jan-19 00:54 35.238799 -120.639154 266 215ft 0kts
13-Jan-19 00:55 35.238799 -120.639154 266 215ft 0kts
13-Jan-19 00:56 35.238799 -120.639154 266 215ft 0kts

Navigation Log

Ident Type
Flight plan parsing failed, navigation log unavailable